CEB370 RPLC-VMMC
Flight info
| Callsign | CEB370 |
|---|---|
| Flight time | N/A |
| Altitude | 38000 |
| Route | MALIB1A MALIB DCT AVMUP DCT CHALI |
| Aircraft | A339/H-SADE1E2E3GHIJ3J5M1P2RWXY/LB2D1 |
Departure
| Time | 2026-04-25 17:27 |
|---|---|
| Airport | Clark International Airport / Clark Air Base (RPLC) |
Arrival
| Time | N/A |
|---|---|
| Airport | Macau International Airport (VMMC) |
| Time | Latitude | Longitude | Altitude | Speed | Heading |
|---|---|---|---|---|---|
| 2026-04-25 16:54 | 15.19533 | 120.56216 | 442 ft | 0 kts | 21° |
| 2026-04-25 17:09 | 15.19532 | 120.56215 | 442 ft | 1 kts | 21° |
| 2026-04-25 17:09 | 15.19526 | 120.56213 | 426 ft | 1 kts | 21° |
| 2026-04-25 17:10 | 15.19521 | 120.56211 | 426 ft | 1 kts | 21° |
| 2026-04-25 17:10 | 15.19512 | 120.56207 | 435 ft | 1 kts | 21° |
| 2026-04-25 17:10 | 15.19505 | 120.56205 | 431 ft | 1 kts | 21° |
| 2026-04-25 17:10 | 15.19498 | 120.56202 | 426 ft | 1 kts | 21° |
| 2026-04-25 17:11 | 15.19491 | 120.56199 | 426 ft | 1 kts | 21° |
| 2026-04-25 17:11 | 15.19485 | 120.56197 | 429 ft | 1 kts | 21° |
| 2026-04-25 17:11 | 15.19478 | 120.56194 | 432 ft | 1 kts | 24° |
| 2026-04-25 17:11 | 15.19470 | 120.56192 | 426 ft | 1 kts | 40° |
| 2026-04-25 17:12 | 15.19464 | 120.56188 | 426 ft | 1 kts | 56° |
| 2026-04-25 17:12 | 15.19458 | 120.56182 | 432 ft | 1 kts | 82° |
| 2026-04-25 17:12 | 15.19455 | 120.56174 | 429 ft | 1 kts | 111° |
| 2026-04-25 17:12 | 15.19455 | 120.56173 | 429 ft | 0 kts | 114° |
| 2026-04-25 17:15 | 15.19455 | 120.56174 | 429 ft | 1 kts | 114° |
| 2026-04-25 17:15 | 15.19450 | 120.56187 | 426 ft | 3 kts | 112° |
| 2026-04-25 17:15 | 15.19440 | 120.56212 | 433 ft | 5 kts | 112° |
| 2026-04-25 17:16 | 15.19424 | 120.56249 | 430 ft | 6 kts | 121° |
| 2026-04-25 17:16 | 15.19390 | 120.56253 | 428 ft | 4 kts | 191° |
| 2026-04-25 17:16 | 15.19355 | 120.56243 | 435 ft | 6 kts | 195° |
| 2026-04-25 17:16 | 15.19310 | 120.56225 | 428 ft | 8 kts | 201° |
| 2026-04-25 17:17 | 15.19257 | 120.56203 | 438 ft | 9 kts | 201° |
| 2026-04-25 17:17 | 15.19194 | 120.56178 | 434 ft | 10 kts | 201° |
| 2026-04-25 17:17 | 15.19124 | 120.56150 | 432 ft | 11 kts | 201° |
| 2026-04-25 17:17 | 15.19096 | 120.56090 | 439 ft | 9 kts | 278° |
| 2026-04-25 17:18 | 15.19107 | 120.56026 | 438 ft | 7 kts | 254° |
| 2026-04-25 17:18 | 15.19066 | 120.56002 | 434 ft | 7 kts | 200° |
| 2026-04-25 17:18 | 15.19015 | 120.55983 | 430 ft | 8 kts | 198° |
| 2026-04-25 17:18 | 15.18956 | 120.55959 | 440 ft | 10 kts | 201° |
| 2026-04-25 17:19 | 15.18889 | 120.55932 | 435 ft | 11 kts | 201° |
| 2026-04-25 17:19 | 15.18815 | 120.55903 | 434 ft | 12 kts | 201° |
| 2026-04-25 17:19 | 15.18733 | 120.55871 | 434 ft | 13 kts | 200° |
| 2026-04-25 17:19 | 15.18645 | 120.55837 | 435 ft | 14 kts | 201° |
| 2026-04-25 17:20 | 15.18552 | 120.55799 | 435 ft | 13 kts | 201° |
| 2026-04-25 17:20 | 15.18467 | 120.55765 | 435 ft | 12 kts | 200° |
| 2026-04-25 17:20 | 15.18382 | 120.55732 | 435 ft | 13 kts | 200° |
| 2026-04-25 17:20 | 15.18291 | 120.55697 | 436 ft | 14 kts | 200° |
| 2026-04-25 17:21 | 15.18199 | 120.55661 | 437 ft | 14 kts | 201° |
| 2026-04-25 17:21 | 15.18106 | 120.55624 | 427 ft | 15 kts | 201° |
| 2026-04-25 17:21 | 15.18006 | 120.55584 | 430 ft | 16 kts | 201° |
| 2026-04-25 17:21 | 15.17914 | 120.55547 | 428 ft | 15 kts | 201° |
| 2026-04-25 17:22 | 15.17817 | 120.55508 | 432 ft | 15 kts | 201° |
| 2026-04-25 17:22 | 15.17750 | 120.55481 | 429 ft | 16 kts | 201° |
| 2026-04-25 17:22 | 15.17639 | 120.55445 | 442 ft | 3 kts | 173° |
| 2026-04-25 17:22 | 15.17622 | 120.55460 | 426 ft | 4 kts | 142° |
| 2026-04-25 17:23 | 15.17607 | 120.55485 | 430 ft | 5 kts | 124° |
| 2026-04-25 17:23 | 15.17585 | 120.55520 | 429 ft | 7 kts | 122° |
| 2026-04-25 17:23 | 15.17560 | 120.55567 | 438 ft | 8 kts | 118° |
| 2026-04-25 17:23 | 15.17530 | 120.55625 | 430 ft | 9 kts | 118° |
| 2026-04-25 17:24 | 15.17517 | 120.55650 | 430 ft | 0 kts | 118° |
| 2026-04-25 17:24 | 15.17515 | 120.55653 | 428 ft | 2 kts | 119° |
| 2026-04-25 17:24 | 15.17505 | 120.55670 | 434 ft | 4 kts | 120° |
| 2026-04-25 17:25 | 15.17484 | 120.55707 | 431 ft | 8 kts | 120° |
| 2026-04-25 17:25 | 15.17465 | 120.55777 | 433 ft | 12 kts | 85° |
| 2026-04-25 17:25 | 15.17520 | 120.55819 | 433 ft | 9 kts | 20° |
| 2026-04-25 17:25 | 15.17535 | 120.55824 | 435 ft | 1 kts | 19° |
| 2026-04-25 17:26 | 15.17540 | 120.55826 | 435 ft | 4 kts | 19° |
| 2026-04-25 17:26 | 15.17717 | 120.55894 | 436 ft | 67 kts | 20° |
| 2026-04-25 17:26 | 15.18413 | 120.56169 | 430 ft | 144 kts | 21° |
| 2026-04-25 17:26 | 15.19528 | 120.56601 | 580 ft | 188 kts | 19° |
| 2026-04-25 17:27 | 15.20761 | 120.57080 | 1201 ft | 196 kts | 20° |
| 2026-04-25 17:27 | 15.22079 | 120.57595 | 1846 ft | 206 kts | 20° |
| 2026-04-25 17:27 | 15.23456 | 120.58119 | 2530 ft | 214 kts | 20° |
| 2026-04-25 17:27 | 15.23933 | 120.58296 | 2767 ft | 216 kts | 19° |
| 2026-04-25 17:28 | 15.26534 | 120.58755 | 3354 ft | 249 kts | 347° |
| 2026-04-25 17:28 | 15.28122 | 120.57971 | 3841 ft | 257 kts | 328° |
| 2026-04-25 17:28 | 15.29600 | 120.56909 | 4427 ft | 260 kts | 324° |
| 2026-04-25 17:28 | 15.31069 | 120.55793 | 4962 ft | 264 kts | 325° |
| 2026-04-25 17:29 | 15.32618 | 120.54772 | 5332 ft | 274 kts | 333° |
| 2026-04-25 17:29 | 15.34447 | 120.54151 | 5911 ft | 278 kts | 346° |
| 2026-04-25 17:29 | 15.36350 | 120.53743 | 6564 ft | 280 kts | 349° |
| 2026-04-25 17:29 | 15.38290 | 120.53432 | 7186 ft | 283 kts | 352° |
| 2026-04-25 17:30 | 15.40255 | 120.53173 | 7802 ft | 286 kts | 352° |
| 2026-04-25 17:30 | 15.42239 | 120.52932 | 8423 ft | 288 kts | 353° |
| 2026-04-25 17:30 | 15.44242 | 120.52694 | 9038 ft | 291 kts | 353° |
| 2026-04-25 17:30 | 15.46272 | 120.52451 | 9670 ft | 294 kts | 352° |
| 2026-04-25 17:32 | 15.62055 | 120.50410 | 12230 ft | 358 kts | 352° |
| 2026-04-25 17:32 | 15.64542 | 120.50087 | 12712 ft | 362 kts | 352° |
| 2026-04-25 17:33 | 15.67007 | 120.49686 | 13203 ft | 364 kts | 346° |
| 2026-04-25 17:33 | 15.69420 | 120.48844 | 13665 ft | 367 kts | 335° |
| 2026-04-25 17:33 | 15.71657 | 120.47547 | 14138 ft | 368 kts | 326° |
| 2026-04-25 17:33 | 15.73811 | 120.46089 | 14609 ft | 370 kts | 326° |
| 2026-04-25 17:34 | 15.75989 | 120.44639 | 15091 ft | 372 kts | 326° |
| 2026-04-25 17:34 | 15.78187 | 120.43191 | 15546 ft | 374 kts | 326° |
| 2026-04-25 17:34 | 15.80388 | 120.41746 | 16012 ft | 376 kts | 326° |
| 2026-04-25 17:34 | 15.82579 | 120.40308 | 16461 ft | 377 kts | 326° |
| 2026-04-25 17:35 | 15.84804 | 120.38847 | 16906 ft | 379 kts | 326° |
| 2026-04-25 17:35 | 15.87045 | 120.37375 | 17338 ft | 381 kts | 326° |
| 2026-04-25 17:35 | 15.89291 | 120.35899 | 17803 ft | 383 kts | 325° |
| 2026-04-25 17:35 | 15.91548 | 120.34415 | 18227 ft | 385 kts | 325° |
| 2026-04-25 17:36 | 15.93817 | 120.32922 | 18589 ft | 387 kts | 325° |
| 2026-04-25 17:36 | 15.96101 | 120.31419 | 18959 ft | 389 kts | 325° |
| 2026-04-25 17:36 | 15.98396 | 120.29908 | 19330 ft | 391 kts | 325° |
| 2026-04-25 17:36 | 16.00705 | 120.28388 | 19705 ft | 393 kts | 325° |
| 2026-04-25 17:37 | 16.02995 | 120.26879 | 20076 ft | 396 kts | 325° |
| 2026-04-25 17:37 | 16.05334 | 120.25338 | 20453 ft | 398 kts | 325° |
| 2026-04-25 17:37 | 16.07684 | 120.23789 | 20820 ft | 401 kts | 324° |
| 2026-04-25 17:37 | 16.10047 | 120.22231 | 21213 ft | 403 kts | 324° |
| 2026-04-25 17:38 | 16.12421 | 120.20665 | 21586 ft | 406 kts | 324° |
| 2026-04-25 17:38 | 16.14001 | 120.19622 | 21850 ft | 407 kts | 324° |
| 2026-04-25 17:38 | 16.17219 | 120.17499 | 22359 ft | 410 kts | 324° |
| 2026-04-25 17:38 | 16.19644 | 120.15898 | 22747 ft | 413 kts | 324° |
| 2026-04-25 17:39 | 16.22048 | 120.14310 | 23130 ft | 416 kts | 324° |
| 2026-04-25 17:39 | 16.24500 | 120.12691 | 23514 ft | 418 kts | 324° |
| 2026-04-25 17:39 | 16.26961 | 120.11064 | 23848 ft | 420 kts | 324° |
| 2026-04-25 17:39 | 16.29440 | 120.09426 | 24199 ft | 422 kts | 324° |
| 2026-04-25 17:40 | 16.31926 | 120.07782 | 24539 ft | 424 kts | 324° |
| 2026-04-25 17:40 | 16.34426 | 120.06128 | 24881 ft | 426 kts | 324° |
| 2026-04-25 17:40 | 16.36940 | 120.04465 | 25221 ft | 428 kts | 324° |
| 2026-04-25 17:40 | 16.39423 | 120.02821 | 25545 ft | 430 kts | 324° |
| 2026-04-25 17:41 | 16.41964 | 120.01139 | 25875 ft | 432 kts | 324° |
| 2026-04-25 17:41 | 16.44510 | 119.99453 | 26221 ft | 434 kts | 324° |
| 2026-04-25 17:41 | 16.47063 | 119.97762 | 26551 ft | 436 kts | 324° |
| 2026-04-25 17:41 | 16.49627 | 119.96063 | 26862 ft | 438 kts | 324° |
| 2026-04-25 17:42 | 16.52203 | 119.94355 | 27193 ft | 439 kts | 324° |
| 2026-04-25 17:42 | 16.54763 | 119.92658 | 27514 ft | 441 kts | 324° |
| 2026-04-25 17:43 | 16.62487 | 119.87533 | 28440 ft | 447 kts | 324° |
| 2026-04-25 17:43 | 16.65125 | 119.85782 | 28767 ft | 449 kts | 324° |
| 2026-04-25 17:43 | 16.67764 | 119.84029 | 29061 ft | 451 kts | 324° |
| 2026-04-25 17:43 | 16.70416 | 119.82267 | 29358 ft | 453 kts | 324° |
| 2026-04-25 17:44 | 16.73088 | 119.80490 | 29660 ft | 455 kts | 324° |
| 2026-04-25 17:44 | 16.75771 | 119.78707 | 29985 ft | 457 kts | 324° |
| 2026-04-25 17:44 | 16.78424 | 119.76943 | 30251 ft | 459 kts | 324° |
| 2026-04-25 17:44 | 16.81118 | 119.75150 | 30519 ft | 461 kts | 324° |
| 2026-04-25 17:45 | 16.83825 | 119.73349 | 30798 ft | 463 kts | 324° |
| 2026-04-25 17:45 | 16.85666 | 119.72123 | 30989 ft | 464 kts | 324° |
| 2026-04-25 17:45 | 16.89285 | 119.69713 | 31364 ft | 466 kts | 324° |
| 2026-04-25 17:45 | 16.92022 | 119.67889 | 31630 ft | 469 kts | 324° |
| 2026-04-25 17:46 | 16.94782 | 119.66050 | 31912 ft | 470 kts | 324° |
| 2026-04-25 17:46 | 16.97554 | 119.64202 | 32187 ft | 472 kts | 324° |
| 2026-04-25 17:46 | 17.00331 | 119.62349 | 32420 ft | 474 kts | 324° |
| 2026-04-25 17:46 | 17.03088 | 119.60510 | 32637 ft | 476 kts | 324° |
| 2026-04-25 17:47 | 17.05885 | 119.58644 | 32838 ft | 477 kts | 324° |
| 2026-04-25 17:47 | 17.08688 | 119.56772 | 33026 ft | 478 kts | 324° |
| 2026-04-25 17:47 | 17.11502 | 119.54892 | 33180 ft | 479 kts | 324° |
| 2026-04-25 17:47 | 17.14316 | 119.53012 | 33322 ft | 480 kts | 324° |
| 2026-04-25 17:48 | 17.19959 | 119.49241 | 33659 ft | 480 kts | 323° |
| 2026-04-25 17:48 | 17.22775 | 119.47357 | 33832 ft | 480 kts | 323° |
| 2026-04-25 17:48 | 17.25555 | 119.45497 | 33991 ft | 479 kts | 323° |
| 2026-04-25 17:49 | 17.28367 | 119.43615 | 34153 ft | 479 kts | 323° |
| 2026-04-25 17:49 | 17.31176 | 119.41734 | 34334 ft | 478 kts | 323° |
| 2026-04-25 17:49 | 17.33979 | 119.39857 | 34497 ft | 477 kts | 323° |
| 2026-04-25 17:49 | 17.36779 | 119.37981 | 34656 ft | 477 kts | 323° |
| 2026-04-25 17:50 | 17.39569 | 119.36110 | 34816 ft | 476 kts | 323° |
| 2026-04-25 17:50 | 17.42322 | 119.34264 | 34980 ft | 475 kts | 323° |
| 2026-04-25 17:50 | 17.45104 | 119.32398 | 35144 ft | 475 kts | 323° |
| 2026-04-25 17:50 | 17.47884 | 119.30532 | 35305 ft | 474 kts | 323° |
| 2026-04-25 17:51 | 17.50661 | 119.28667 | 35468 ft | 474 kts | 323° |
| 2026-04-25 17:51 | 17.53436 | 119.26804 | 35654 ft | 473 kts | 323° |
| 2026-04-25 17:51 | 17.56206 | 119.24943 | 35838 ft | 472 kts | 322° |
| 2026-04-25 17:51 | 17.58974 | 119.23083 | 36020 ft | 472 kts | 322° |
| 2026-04-25 17:52 | 17.61732 | 119.21228 | 36214 ft | 471 kts | 322° |
| 2026-04-25 17:52 | 17.67206 | 119.17546 | 36611 ft | 469 kts | 322° |
| 2026-04-25 17:52 | 17.69956 | 119.15695 | 36805 ft | 468 kts | 322° |
| 2026-04-25 17:53 | 17.72691 | 119.13854 | 36999 ft | 467 kts | 322° |
| 2026-04-25 17:53 | 17.75425 | 119.12012 | 37197 ft | 466 kts | 322° |
| 2026-04-25 17:53 | 17.78157 | 119.10171 | 37389 ft | 465 kts | 322° |
| 2026-04-25 17:53 | 17.80890 | 119.08329 | 37577 ft | 464 kts | 322° |
| 2026-04-25 17:54 | 17.83609 | 119.06495 | 37758 ft | 464 kts | 322° |
| 2026-04-25 17:54 | 17.86326 | 119.04663 | 37933 ft | 463 kts | 322° |
| 2026-04-25 17:54 | 17.89001 | 119.02857 | 37936 ft | 462 kts | 322° |
| 2026-04-25 17:55 | 17.94397 | 118.99199 | 37926 ft | 460 kts | 320° |
| 2026-04-25 17:55 | 17.99253 | 118.94934 | 37931 ft | 451 kts | 309° |
| 2026-04-25 17:56 | 18.03213 | 118.89888 | 37929 ft | 444 kts | 299° |
| 2026-04-25 17:56 | 18.06646 | 118.84503 | 37937 ft | 443 kts | 299° |
| 2026-04-25 17:57 | 18.10081 | 118.79178 | 37934 ft | 443 kts | 299° |
| 2026-04-25 17:57 | 18.13536 | 118.73814 | 37932 ft | 442 kts | 299° |
| 2026-04-25 17:58 | 18.16980 | 118.68455 | 37934 ft | 442 kts | 299° |
| 2026-04-25 17:58 | 18.20419 | 118.63099 | 37935 ft | 441 kts | 299° |
| 2026-04-25 17:59 | 18.23845 | 118.57756 | 37937 ft | 440 kts | 299° |
| 2026-04-25 17:59 | 18.27249 | 118.52444 | 37938 ft | 439 kts | 299° |
| 2026-04-25 18:00 | 18.30090 | 118.48005 | 37937 ft | 439 kts | 299° |
| 2026-04-25 18:00 | 18.34058 | 118.41802 | 37940 ft | 438 kts | 299° |
| 2026-04-25 18:01 | 18.37460 | 118.36480 | 37939 ft | 437 kts | 298° |
| 2026-04-25 18:01 | 18.40853 | 118.31167 | 37938 ft | 436 kts | 298° |
| 2026-04-25 18:02 | 18.44240 | 118.25858 | 37938 ft | 436 kts | 298° |
| 2026-04-25 18:02 | 18.47629 | 118.20542 | 37940 ft | 435 kts | 298° |
| 2026-04-25 18:03 | 18.50978 | 118.15286 | 37939 ft | 435 kts | 298° |
| 2026-04-25 18:03 | 18.54349 | 118.09989 | 37941 ft | 434 kts | 298° |
| 2026-04-25 18:04 | 18.57713 | 118.04698 | 37941 ft | 433 kts | 298° |
| 2026-04-25 18:04 | 18.61065 | 117.99422 | 37935 ft | 432 kts | 298° |
| 2026-04-25 18:05 | 18.63840 | 117.95050 | 37934 ft | 432 kts | 298° |
| 2026-04-25 18:05 | 18.67720 | 117.88934 | 37941 ft | 430 kts | 298° |
| 2026-04-25 18:06 | 18.71046 | 117.83686 | 37934 ft | 429 kts | 298° |
| 2026-04-25 18:06 | 18.74358 | 117.78456 | 37935 ft | 428 kts | 298° |
| 2026-04-25 18:07 | 18.77659 | 117.73239 | 37938 ft | 427 kts | 298° |
| 2026-04-25 18:07 | 18.80955 | 117.68024 | 37938 ft | 426 kts | 298° |
| 2026-04-25 18:08 | 18.84223 | 117.62852 | 37932 ft | 425 kts | 298° |
| 2026-04-25 18:08 | 18.87505 | 117.57651 | 37936 ft | 425 kts | 298° |
| 2026-04-25 18:09 | 18.90777 | 117.52463 | 37939 ft | 424 kts | 298° |
| 2026-04-25 18:09 | 18.94050 | 117.47269 | 37937 ft | 423 kts | 298° |
| 2026-04-25 18:10 | 18.97292 | 117.42121 | 37940 ft | 423 kts | 298° |
| 2026-04-25 18:10 | 19.00553 | 117.36937 | 37946 ft | 422 kts | 298° |
| 2026-04-25 18:11 | 19.01100 | 117.36066 | 37942 ft | 422 kts | 298° |